Belews Creek, North Carolina
Current Conditions -  °F | °C
As of 1:54 PM on Saturday 25 Oct 2014 (Local Time) from KINT Reporting Station
Clear Clear  
Wind Chill: 71°   Ceiling: Unl
Heat Index: 71°   Visibility: 10mi
Dew Point: 31°   Wind: 6mph
Humidity: 23%   Direction: 290°WNW
Pressure: 29.98"   Gusts: NA
Location:  36.24°N, 80.07°W
Report Text: KINT 251754Z 29005KT 10SM CLR 22/M01 A2998 RMK AO2 SLP146 T02171006 10217 20039 58025
Loading
Personal Weather Stations






























Interactive Weather Map
Tropical Storm Tracking
New forecast layout! Learn more

10-Day Weather Forecast

Advertisements
Track Severe Weather on mobile